Time;durP1;ratioP1;P1;durP2;ratioP2;P2;SDS_P1;SDS_P2;PMS_P1;PMS_P2;Temp;Humidity;BMP_temperature;BMP_pressure;BME280_temperature;BME280_humidity;BME280_pressure;Samples;Min_cycle;Max_cycle;Signal;HPM_P1;HPM_P2
2023/08/05 00:01:25;;;;;;;10.47;3.90;;;;;;;15.18;100.00;100929.81;5055269;28;20950;-72
2023/08/05 00:03:51;;;;;;;6.53;3.20;;;;;;;15.09;100.00;100925.16;5055638;28;20512;-72
2023/08/05 00:06:19;;;;;;;8.10;3.57;;;;;;;15.01;100.00;100925.19;5053800;28;20490;-72
2023/08/05 00:08:46;;;;;;;8.30;3.93;;;;;;;14.96;100.00;100928.88;5055679;28;20542;-72
2023/08/05 00:11:13;;;;;;;8.50;3.40;;;;;;;14.96;100.00;100942.50;5053990;28;20454;-72
2023/08/05 00:13:39;;;;;;;10.20;3.13;;;;;;;14.96;100.00;100939.78;5047380;28;20537;-72
2023/08/05 00:16:06;;;;;;;9.43;3.53;;;;;;;14.96;100.00;100941.69;5043858;28;20570;-72
2023/08/05 00:18:33;;;;;;;9.73;3.67;;;;;;;14.99;100.00;100950.06;5035697;28;20459;-72
2023/08/05 00:20:59;;;;;;;12.10;3.90;;;;;;;14.97;100.00;100948.78;5035592;28;20607;-72
2023/08/05 00:23:27;;;;;;;6.67;2.93;;;;;;;14.97;100.00;100946.84;5043525;28;20525;-72
2023/08/05 00:25:54;;;;;;;10.03;3.30;;;;;;;14.98;100.00;100947.66;5047106;28;21032;-72
2023/08/05 00:28:21;;;;;;;9.53;3.50;;;;;;;14.92;100.00;100957.94;5050644;28;20488;-72
2023/08/05 00:30:47;;;;;;;8.10;3.47;;;;;;;14.89;100.00;100953.13;5052751;28;20989;-72
2023/08/05 00:33:14;;;;;;;7.37;3.40;;;;;;;14.82;100.00;100945.41;5035369;28;20526;-72
2023/08/05 00:35:40;;;;;;;7.97;3.20;;;;;;;14.73;100.00;100947.31;5034865;28;20518;-73
2023/08/05 00:38:07;;;;;;;9.83;3.20;;;;;;;14.71;100.00;100943.31;5035090;28;20493;-73
2023/08/05 00:40:35;;;;;;;7.30;3.20;;;;;;;14.74;100.00;100953.56;5035145;28;20855;-73
2023/08/05 00:43:02;;;;;;;9.00;2.97;;;;;;;14.74;100.00;100948.94;5045896;28;20451;-73
2023/08/05 00:45:29;;;;;;;7.63;2.63;;;;;;;14.73;100.00;100949.25;5041592;28;20466;-73
2023/08/05 00:47:55;;;;;;;8.33;2.87;;;;;;;14.72;100.00;100950.38;5036220;28;20534;-72
2023/08/05 00:50:24;;;;;;;8.23;2.73;;;;;;;14.64;100.00;100949.25;5035009;28;20443;-72
2023/08/05 00:52:51;;;;;;;6.70;2.90;;;;;;;14.70;100.00;100947.16;5035037;28;20527;-72
2023/08/05 00:55:18;;;;;;;7.83;2.93;;;;;;;14.65;100.00;100939.94;5036583;28;21021;-72
2023/08/05 00:57:47;;;;;;;7.73;2.80;;;;;;;14.58;100.00;100945.06;5036029;28;20530;-72
2023/08/05 01:00:13;;;;;;;9.00;2.67;;;;;;;14.54;100.00;100949.56;5035022;28;20447;-72
2023/08/05 01:02:40;;;;;;;6.97;2.50;;;;;;;14.56;100.00;100944.56;5042859;28;20482;-72
2023/08/05 01:05:07;;;;;;;6.37;2.53;;;;;;;14.57;100.00;100943.47;5037878;28;20904;-72
2023/08/05 01:07:36;;;;;;;9.10;3.20;;;;;;;14.56;100.00;100942.66;5034990;28;20447;-72
2023/08/05 01:10:02;;;;;;;7.50;2.70;;;;;;;14.50;100.00;100943.94;5037842;28;20479;-73
2023/08/05 01:12:30;;;;;;;9.70;3.43;;;;;;;14.55;100.00;100948.44;5046730;28;20451;-72
2023/08/05 01:14:59;;;;;;;5.73;2.17;;;;;;;14.54;100.00;100934.00;5035897;28;20497;-72
2023/08/05 01:17:26;;;;;;;6.87;2.63;;;;;;;14.56;100.00;100936.41;5053971;28;20446;-72
2023/08/05 01:19:52;;;;;;;8.77;3.17;;;;;;;14.59;100.00;100927.59;5052431;28;20443;-72
2023/08/05 01:22:27;;;;;;;17.27;3.33;;;;;;;14.56;100.00;100926.28;5047657;28;20447;-72
2023/08/05 01:25:00;;;;;;;9.03;3.20;;;;;;;14.52;100.00;100929.97;5035490;28;20481;-72
2023/08/05 01:27:29;;;;;;;8.90;3.30;;;;;;;14.49;100.00;100925.19;5034584;28;20445;-72
2023/08/05 01:29:56;;;;;;;15.33;3.60;;;;;;;14.43;100.00;100926.41;5042621;28;20469;-72
2023/08/05 01:32:24;;;;;;;7.90;2.90;;;;;;;14.34;100.00;100929.94;5054415;28;20442;-72
2023/08/05 01:34:50;;;;;;;9.13;3.10;;;;;;;14.28;100.00;100922.22;5054273;28;20570;-72
2023/08/05 01:37:17;;;;;;;6.70;2.30;;;;;;;14.24;100.00;100932.94;5048442;28;20454;-73
2023/08/05 01:39:44;;;;;;;9.00;3.30;;;;;;;14.19;100.00;100927.66;5040711;28;20450;-73
2023/08/05 01:42:11;;;;;;;7.43;2.93;;;;;;;14.20;100.00;100931.97;5038920;28;20522;-73
2023/08/05 01:44:39;;;;;;;7.47;3.30;;;;;;;14.24;100.00;100927.50;5035474;28;20443;-73
2023/08/05 01:47:06;;;;;;;8.77;3.07;;;;;;;14.26;100.00;100930.72;5053954;28;20477;-72
2023/08/05 01:49:33;;;;;;;8.47;3.00;;;;;;;14.32;100.00;100926.72;5053916;28;20439;-74
2023/08/05 01:51:59;;;;;;;10.87;3.17;;;;;;;14.32;100.00;100925.91;5053796;28;20599;-73
2023/08/05 01:54:26;;;;;;;7.63;2.93;;;;;;;14.31;100.00;100929.78;5053403;28;20446;-73
2023/08/05 01:56:53;;;;;;;6.97;2.67;;;;;;;14.29;100.00;100932.78;5051520;28;20513;-72
2023/08/05 01:59:19;;;;;;;8.27;3.43;;;;;;;14.26;100.00;100927.19;5033198;28;20447;-72
2023/08/05 02:01:48;;;;;;;7.07;2.80;;;;;;;14.30;100.00;100928.16;5034214;28;20465;-72
2023/08/05 02:04:15;;;;;;;6.80;2.37;;;;;;;14.25;100.00;100937.25;5033674;28;20514;-72
2023/08/05 02:06:42;;;;;;;6.43;2.20;;;;;;;14.28;100.00;100928.47;5033683;28;20455;-72
2023/08/05 02:09:09;;;;;;;7.60;2.77;;;;;;;14.32;100.00;100932.16;5049079;22;20883;-69
2023/08/05 02:11:35;;;;;;;12.77;3.03;;;;;;;14.32;100.00;100925.91;5033028;28;21001;-69
2023/08/05 02:14:02;;;;;;;6.77;2.67;;;;;;;14.30;100.00;100934.41;5033302;28;20443;-69
2023/08/05 02:16:29;;;;;;;7.30;2.87;;;;;;;14.29;100.00;100927.34;5033401;28;20494;-69
2023/08/05 02:18:57;;;;;;;6.40;2.30;;;;;;;14.28;100.00;100933.13;5033361;28;20458;-69
2023/08/05 02:21:24;;;;;;;7.60;2.73;;;;;;;14.26;100.00;100933.44;5034029;28;20455;-70
2023/08/05 02:23:51;;;;;;;7.47;2.50;;;;;;;14.29;100.00;100935.50;5033044;28;20450;-70
2023/08/05 02:26:18;;;;;;;7.43;2.50;;;;;;;14.31;100.00;100941.47;5033195;28;20550;-70
2023/08/05 02:28:46;;;;;;;8.43;3.37;;;;;;;14.29;100.00;100942.88;5033404;28;20873;-70
2023/08/05 02:31:12;;;;;;;9.27;3.40;;;;;;;14.26;100.00;100943.53;5033083;28;20454;-70
2023/08/05 02:33:39;;;;;;;7.23;2.60;;;;;;;14.18;100.00;100942.41;5032981;28;20873;-70
2023/08/05 02:36:07;;;;;;;10.03;3.07;;;;;;;14.07;100.00;100947.31;5033405;28;20509;-70
2023/08/05 02:38:34;;;;;;;7.10;2.93;;;;;;;14.11;100.00;100956.47;5033318;28;21016;-70
2023/08/05 02:41:01;;;;;;;6.50;2.30;;;;;;;14.17;100.00;100954.41;5033049;28;20919;-70
2023/08/05 02:43:27;;;;;;;6.97;2.57;;;;;;;14.23;100.00;100958.59;5033148;28;20454;-70
2023/08/05 02:45:54;;;;;;;8.47;2.97;;;;;;;14.15;100.00;100962.09;5032639;28;20833;-70
2023/08/05 02:48:21;;;;;;;8.93;2.77;;;;;;;14.09;100.00;100963.38;5033034;28;20447;-70
2023/08/05 02:50:48;;;;;;;6.10;2.00;;;;;;;14.10;100.00;100962.22;5032898;28;20449;-70
2023/08/05 02:53:16;;;;;;;14.20;2.60;;;;;;;14.07;100.00;100954.69;5033111;28;20522;-70
2023/08/05 02:55:43;;;;;;;8.60;2.57;;;;;;;14.06;100.00;100955.81;5031876;28;20566;-70
2023/08/05 02:58:10;;;;;;;11.30;2.77;;;;;;;14.13;100.00;100961.63;5032732;28;20527;-70
2023/08/05 03:00:37;;;;;;;7.10;1.97;;;;;;;14.16;100.00;100965.63;5033086;28;20451;-70
2023/08/05 03:03:03;;;;;;;6.80;2.33;;;;;;;14.18;100.00;100957.94;5033280;28;20443;-70
2023/08/05 03:05:30;;;;;;;8.20;2.30;;;;;;;14.16;100.00;100960.16;5032531;28;20551;-70
2023/08/05 03:07:56;;;;;;;8.47;2.27;;;;;;;14.18;100.00;100963.38;5032897;28;20530;-70
2023/08/05 03:10:24;;;;;;;6.60;2.10;;;;;;;14.14;100.00;100957.75;5032797;28;20888;-70
2023/08/05 03:12:51;;;;;;;11.63;2.10;;;;;;;14.15;100.00;100956.63;5035526;28;20447;-70
2023/08/05 03:15:18;;;;;;;6.60;2.10;;;;;;;14.15;100.00;100959.38;5036421;28;20522;-70
2023/08/05 03:17:44;;;;;;;6.97;2.17;;;;;;;14.12;100.00;100955.38;5036586;28;20473;-70
2023/08/05 03:20:23;;;;;;;6.77;2.60;;;;;;;14.10;100.00;100963.03;5036182;28;20447;-70
2023/08/05 03:22:50;;;;;;;6.10;1.90;;;;;;;14.08;100.00;100956.31;5036480;28;20522;-70
2023/08/05 03:25:17;;;;;;;6.43;2.00;;;;;;;14.04;100.00;100947.97;5035691;28;21086;-70
2023/08/05 03:27:45;;;;;;;6.30;1.80;;;;;;;14.03;100.00;100948.25;5036334;28;20504;-70
2023/08/05 03:30:11;;;;;;;5.83;1.67;;;;;;;14.00;100.00;100941.53;5036543;28;20542;-70
2023/08/05 03:32:38;;;;;;;6.40;1.83;;;;;;;13.94;100.00;100933.81;5036472;28;20449;-70
2023/08/05 03:35:05;;;;;;;6.20;1.90;;;;;;;13.92;100.00;100931.41;5035849;28;20467;-70
2023/08/05 03:37:32;;;;;;;6.40;2.03;;;;;;;13.95;100.00;100928.06;5035815;28;20542;-70
2023/08/05 03:39:58;;;;;;;9.53;2.30;;;;;;;13.93;100.00;100929.50;5029283;28;20477;-70
2023/08/05 03:42:26;;;;;;;5.83;1.70;;;;;;;13.98;100.00;100926.63;5016600;28;20523;-70
2023/08/05 03:44:54;;;;;;;5.70;1.67;;;;;;;14.00;100.00;100932.56;5016444;28;20540;-70
2023/08/05 03:47:21;;;;;;;6.80;2.20;;;;;;;14.00;100.00;100935.28;5016399;28;20467;-70
2023/08/05 03:49:47;;;;;;;7.47;2.20;;;;;;;14.06;100.00;100936.75;5032447;28;20906;-70
2023/08/05 03:52:15;;;;;;;6.63;2.53;;;;;;;14.09;100.00;100933.41;5055749;28;20861;-70
2023/08/05 03:54:41;;;;;;;6.97;2.30;;;;;;;14.07;100.00;100928.25;5055647;28;20465;-70
2023/08/05 03:57:08;;;;;;;7.07;2.37;;;;;;;14.09;100.00;100934.19;5041287;28;20909;-70
2023/08/05 03:59:35;;;;;;;6.10;2.13;;;;;;;14.06;100.00;100928.56;5036472;28;20443;-70
2023/08/05 04:02:03;;;;;;;6.70;2.13;;;;;;;14.08;100.00;100931.78;5035918;28;20523;-70
2023/08/05 04:04:30;;;;;;;6.63;1.90;;;;;;;14.06;100.00;100940.25;5035852;28;20531;-70
2023/08/05 04:06:57;;;;;;;5.37;1.67;;;;;;;14.09;100.00;100945.09;5036208;28;20522;-70
2023/08/05 04:09:25;;;;;;;6.20;1.83;;;;;;;14.14;100.00;100950.38;5035605;28;20497;-70
2023/08/05 04:11:53;;;;;;;6.90;2.20;;;;;;;14.18;100.00;100953.28;5035814;28;20431;-70
2023/08/05 04:14:20;;;;;;;8.17;2.40;;;;;;;14.19;100.00;100948.66;5035412;28;20459;-70
2023/08/05 04:16:47;;;;;;;7.93;2.10;;;;;;;14.22;100.00;100954.28;5035443;28;20990;-70
2023/08/05 04:19:16;;;;;;;6.57;1.70;;;;;;;14.24;100.00;100962.91;5034891;28;20868;-70
2023/08/05 04:21:47;;;;;;;7.60;2.30;;;;;;;14.32;100.00;100947.72;5034088;28;20801;-70
2023/08/05 04:24:16;;;;;;;6.20;2.20;;;;;;;14.37;100.00;100953.00;5035041;28;20439;-70
2023/08/05 04:26:42;;;;;;;5.60;1.63;;;;;;;14.45;100.00;100954.97;5035404;28;20472;-70
2023/08/05 04:29:10;;;;;;;6.57;2.30;;;;;;;14.52;100.00;100958.06;5035238;28;20538;-70
2023/08/05 04:31:38;;;;;;;6.50;1.80;;;;;;;14.56;100.00;100963.66;5035050;28;20505;-70
2023/08/05 04:34:04;;;;;;;7.00;2.10;;;;;;;14.58;100.00;100962.22;5034979;28;20454;-70
2023/08/05 04:36:32;;;;;;;7.03;2.30;;;;;;;14.63;100.00;100961.28;5035274;28;20494;-70
2023/08/05 04:39:03;;;;;;;7.50;2.57;;;;;;;14.60;100.00;100970.88;5034986;28;20443;-70
2023/08/05 04:41:29;;;;;;;9.80;3.23;;;;;;;14.71;100.00;100968.66;5035397;28;20451;-70
2023/08/05 04:43:57;;;;;;;6.00;1.97;;;;;;;14.79;100.00;100967.88;5035224;28;20443;-70
2023/08/05 04:46:24;;;;;;;7.67;2.17;;;;;;;14.84;100.00;100966.91;5034810;28;20464;-70
2023/08/05 04:48:50;;;;;;;6.43;2.63;;;;;;;14.91;100.00;100971.88;5034852;28;20446;-70
2023/08/05 04:51:17;;;;;;;6.53;2.50;;;;;;;15.01;100.00;100966.13;5034899;28;20447;-70
2023/08/05 04:53:45;;;;;;;6.30;2.10;;;;;;;15.07;100.00;100957.44;5034658;28;20534;-70
2023/08/05 04:56:12;;;;;;;9.20;2.83;;;;;;;15.14;100.00;100965.16;5034581;28;20483;-70
2023/08/05 04:58:39;;;;;;;7.67;2.63;;;;;;;15.21;100.00;100968.19;5034636;28;20474;-70
2023/08/05 05:01:06;;;;;;;6.47;2.20;;;;;;;15.27;100.00;100966.06;5034735;28;20850;-70
2023/08/05 05:03:32;;;;;;;14.40;2.60;;;;;;;15.27;100.00;100961.44;5034149;28;20534;-70
2023/08/05 05:06:00;;;;;;;7.93;2.60;;;;;;;15.28;100.00;100965.78;5034307;28;20550;-70
2023/08/05 05:08:27;;;;;;;6.10;2.10;;;;;;;15.32;100.00;100969.47;5034937;28;20447;-70
2023/08/05 05:10:55;;;;;;;7.40;2.23;;;;;;;15.36;100.00;100980.50;5033928;28;20471;-68
2023/08/05 05:13:22;;;;;;;5.57;1.90;;;;;;;15.37;100.00;100971.22;5027271;28;20464;-69
2023/08/05 05:15:52;;;;;;;6.60;2.50;;;;;;;15.42;100.00;100973.78;5030985;28;20455;-69
2023/08/05 05:18:19;;;;;;;7.23;2.80;;;;;;;15.46;100.00;100973.94;5034391;28;20527;-69
2023/08/05 05:20:46;;;;;;;8.00;2.33;;;;;;;15.52;100.00;100978.88;5033961;28;20439;-69
2023/08/05 05:23:13;;;;;;;8.93;2.63;;;;;;;15.58;100.00;100982.25;5033323;28;20526;-71
2023/08/05 05:25:40;;;;;;;8.80;2.40;;;;;;;15.57;100.00;100981.44;5034530;28;20550;-69
2023/08/05 05:28:08;;;;;;;7.10;1.53;;;;;;;15.59;100.00;100992.06;5033913;28;20449;-69
2023/08/05 05:30:35;;;;;;;6.23;1.50;;;;;;;15.69;100.00;100989.00;5034450;28;20533;-69
2023/08/05 05:33:02;;;;;;;6.73;1.90;;;;;;;15.72;100.00;101003.94;5033511;28;20442;-69
2023/08/05 05:35:29;;;;;;;8.60;1.90;;;;;;;15.76;100.00;101008.44;5033163;28;20550;-69
2023/08/05 05:37:56;;;;;;;6.10;1.97;;;;;;;15.81;100.00;101012.91;5022588;28;20566;-69
2023/08/05 05:40:23;;;;;;;4.97;1.23;;;;;;;15.86;100.00;101005.34;5014696;28;20527;-69
2023/08/05 05:42:50;;;;;;;6.03;1.70;;;;;;;15.87;100.00;101006.94;5032355;28;20439;-69
2023/08/05 05:45:18;;;;;;;7.10;2.00;;;;;;;15.95;100.00;101009.97;5033882;28;20466;-69
2023/08/05 05:47:44;;;;;;;7.40;2.00;;;;;;;15.97;100.00;101004.97;5033905;28;20868;-69
2023/08/05 05:50:11;;;;;;;7.07;2.03;;;;;;;16.05;100.00;101013.16;5033927;28;20538;-69
2023/08/05 05:52:38;;;;;;;5.87;1.70;;;;;;;16.07;100.00;101010.06;5033757;28;20439;-69
2023/08/05 05:55:05;;;;;;;7.30;1.70;;;;;;;16.10;100.00;100998.50;5041137;22;20557;-70
2023/08/05 05:57:32;;;;;;;14.27;1.60;;;;;;;16.19;100.00;100999.25;5033708;28;20493;-70
2023/08/05 05:59:59;;;;;;;10.80;2.47;;;;;;;16.26;100.00;101001.50;5033723;28;20441;-70
2023/08/05 06:02:29;;;;;;;5.60;1.80;;;;;;;16.28;100.00;101005.50;5033791;28;20482;-71
2023/08/05 06:04:55;;;;;;;7.20;2.40;;;;;;;16.39;100.00;100995.00;5033690;28;20467;-70
2023/08/05 06:07:22;;;;;;;5.70;1.80;;;;;;;16.34;100.00;101003.38;5033393;28;20525;-70
2023/08/05 06:09:48;;;;;;;8.13;1.90;;;;;;;16.45;100.00;100995.59;5033659;28;20526;-70
2023/08/05 06:12:18;;;;;;;6.77;1.93;;;;;;;16.52;100.00;100991.22;5019440;28;20982;-70
2023/08/05 06:14:44;;;;;;;5.50;1.50;;;;;;;16.63;100.00;100988.88;5013967;28;20471;-70
2023/08/05 06:17:11;;;;;;;6.30;1.43;;;;;;;16.70;100.00;100994.66;5013669;28;20490;-72
2023/08/05 06:19:39;;;;;;;6.97;1.97;;;;;;;16.78;100.00;100995.75;5013814;28;20440;-69
2023/08/05 06:22:06;;;;;;;7.13;1.97;;;;;;;16.83;100.00;100996.34;5014903;28;20520;-70
2023/08/05 06:24:33;;;;;;;6.60;1.70;;;;;;;16.85;100.00;100996.81;5014756;28;20535;-70
2023/08/05 06:26:59;;;;;;;7.23;1.93;;;;;;;16.87;100.00;100991.81;5013994;28;20444;-70
2023/08/05 06:29:26;;;;;;;6.80;1.83;;;;;;;16.94;100.00;100983.06;5024615;28;20443;-70
2023/08/05 06:31:52;;;;;;;6.30;2.00;;;;;;;17.07;100.00;100987.47;5033454;28;20439;-70
2023/08/05 06:34:21;;;;;;;5.60;1.70;;;;;;;17.19;100.00;100992.19;5026728;28;20450;-70
2023/08/05 06:36:49;;;;;;;7.37;2.30;;;;;;;17.30;100.00;100979.69;5013806;28;20515;-70
2023/08/05 06:39:15;;;;;;;6.57;1.93;;;;;;;17.42;100.00;100986.34;5019054;28;20935;-70
2023/08/05 06:41:42;;;;;;;6.30;1.90;;;;;;;17.55;100.00;100985.25;5033330;28;20461;-70
2023/08/05 06:44:08;;;;;;;6.17;1.73;;;;;;;17.64;100.00;101000.47;5033336;28;20865;-70
2023/08/05 06:46:35;;;;;;;6.70;1.93;;;;;;;17.72;100.00;101000.72;5035851;28;21040;-70
2023/08/05 06:49:02;;;;;;;6.20;1.37;;;;;;;17.83;100.00;101005.44;5036958;28;20446;-70
2023/08/05 06:51:31;;;;;;;6.70;1.93;;;;;;;17.96;100.00;101008.19;5018473;28;20798;-70
2023/08/05 06:53:59;;;;;;;11.53;1.47;;;;;;;18.01;100.00;101002.50;5018042;28;20559;-70
2023/08/05 06:56:26;;;;;;;6.40;2.00;;;;;;;18.08;100.00;100998.06;5025733;28;20546;-70
2023/08/05 06:58:53;;;;;;;6.47;2.00;;;;;;;18.19;100.00;101003.88;5036619;28;20540;-70
2023/08/05 07:01:19;;;;;;;7.00;1.90;;;;;;;18.31;100.00;100998.41;5035098;28;20960;-70
2023/08/05 07:03:48;;;;;;;6.17;1.80;;;;;;;18.43;99.30;101002.28;5027303;28;20452;-70
2023/08/05 07:06:14;;;;;;;18.83;2.60;;;;;;;18.51;98.13;101009.59;5017214;28;21038;-70
2023/08/05 07:08:41;;;;;;;8.40;1.80;;;;;;;18.56;97.57;101003.88;5028755;28;20530;-70
2023/08/05 07:11:09;;;;;;;6.93;2.30;;;;;;;18.66;97.84;100995.16;5024589;28;20526;-70
2023/08/05 07:13:35;;;;;;;5.87;1.50;;;;;;;18.69;96.76;100990.94;5025680;28;20447;-70
2023/08/05 07:16:03;;;;;;;5.90;1.80;;;;;;;18.76;96.11;100994.72;5031106;28;20842;-70
2023/08/05 07:18:30;;;;;;;5.93;1.50;;;;;;;18.82;95.90;100996.09;5034524;28;20540;-70
2023/08/05 07:20:57;;;;;;;8.03;1.80;;;;;;;18.90;96.16;100978.69;5016933;28;20444;-70
2023/08/05 07:23:24;;;;;;;6.00;1.60;;;;;;;18.96;96.12;100984.72;5018001;28;20452;-70
2023/08/05 07:25:51;;;;;;;6.60;1.90;;;;;;;18.94;95.40;100983.47;5026284;28;20476;-68
2023/08/05 07:28:19;;;;;;;8.70;1.80;;;;;;;18.99;94.71;100980.47;5032040;28;20478;-72
2023/08/05 07:30:45;;;;;;;5.77;1.80;;;;;;;18.88;93.48;100974.69;5023288;28;20542;-71
2023/08/05 07:33:13;;;;;;;7.13;1.30;;;;;;;18.80;93.38;100981.09;5034983;28;20447;-72
2023/08/05 07:35:39;;;;;;;5.13;1.20;;;;;;;18.89;94.03;100974.31;5027081;28;20474;-69
2023/08/05 07:38:09;;;;;;;5.23;1.30;;;;;;;19.00;93.73;100971.91;5016710;28;20571;-70
2023/08/05 07:40:36;;;;;;;6.33;1.50;;;;;;;19.00;93.24;100976.59;5029008;28;20447;-70
2023/08/05 07:43:03;;;;;;;6.43;1.87;;;;;;;18.98;92.92;100981.63;5036070;28;20435;-70
2023/08/05 07:45:32;;;;;;;5.37;1.20;;;;;;;18.98;93.26;100984.38;5035986;28;20468;-69
2023/08/05 07:48:00;;;;;;;7.10;1.60;;;;;;;19.11;93.03;100983.19;5036155;28;20537;-70
2023/08/05 07:50:26;;;;;;;6.53;1.37;;;;;;;19.20;93.13;100983.03;5036009;28;20447;-70
2023/08/05 07:52:53;;;;;;;5.37;1.53;;;;;;;19.34;92.91;100992.47;5022527;28;20490;-70
2023/08/05 07:55:21;;;;;;;5.57;1.70;;;;;;;19.46;92.16;100985.31;5016335;28;20831;-70
2023/08/05 07:57:48;;;;;;;7.17;2.43;;;;;;;19.47;91.01;100981.41;5015182;28;20837;-70
2023/08/05 08:00:16;;;;;;;9.27;2.23;;;;;;;19.51;91.40;100987.81;5027789;28;20552;-70
2023/08/05 08:02:44;;;;;;;6.20;2.13;;;;;;;19.58;92.08;100974.28;5023193;28;20452;-70
2023/08/05 08:05:13;;;;;;;6.80;1.97;;;;;;;19.68;90.92;100982.03;5036191;28;20467;-70
2023/08/05 08:07:44;;;;;;;5.80;1.20;;;;;;;19.75;90.23;100968.47;5035573;28;20444;-70
2023/08/05 08:10:11;;;;;;;7.27;1.90;;;;;;;19.85;90.47;100969.88;5035474;28;20773;-70
2023/08/05 08:12:38;;;;;;;11.70;1.90;;;;;;;19.86;89.82;100975.03;5036075;28;20453;-70
2023/08/05 08:15:06;;;;;;;8.07;2.17;;;;;;;19.90;88.15;100975.13;5035644;28;20517;-70
2023/08/05 08:17:32;;;;;;;5.43;1.43;;;;;;;20.00;88.08;100971.03;5035358;28;20990;-70
2023/08/05 08:20:00;;;;;;;8.23;1.80;;;;;;;19.97;86.80;100969.00;5035979;28;20518;-70
2023/08/05 08:22:27;;;;;;;5.87;1.77;;;;;;;20.08;87.36;100984.59;5034705;28;20817;-70
2023/08/05 08:24:54;;;;;;;6.50;1.47;;;;;;;20.20;87.25;100982.94;5015813;28;20976;-70
2023/08/05 08:27:20;;;;;;;6.93;2.00;;;;;;;20.28;87.13;100974.50;5028804;28;20530;-70
2023/08/05 08:29:47;;;;;;;6.27;1.90;;;;;;;20.36;87.76;100979.00;5035465;28;20526;-70
2023/08/05 08:32:13;;;;;;;6.50;2.13;;;;;;;20.25;83.84;100977.16;5034735;28;20447;-70
2023/08/05 08:34:40;;;;;;;7.67;1.50;;;;;;;20.13;83.87;100978.03;5026852;28;20436;-70
2023/08/05 08:37:08;;;;;;;6.13;1.50;;;;;;;20.01;84.14;100975.38;5015839;28;20575;-70
2023/08/05 08:39:35;;;;;;;5.10;1.30;;;;;;;19.94;84.46;100975.22;5026866;28;20443;-70
2023/08/05 08:42:02;;;;;;;6.07;1.60;;;;;;;19.91;83.42;100972.00;5030998;28;20527;-70
2023/08/05 08:44:30;;;;;;;6.00;1.80;;;;;;;20.07;84.64;100968.47;5026614;28;20531;-70
2023/08/05 08:46:57;;;;;;;6.73;2.00;;;;;;;20.24;85.43;100979.09;5016788;28;20448;-70
2023/08/05 08:49:24;;;;;;;6.37;1.63;;;;;;;20.45;84.49;100969.72;5027343;28;20471;-70
2023/08/05 08:51:52;;;;;;;5.80;1.77;;;;;;;20.58;81.87;100977.53;5015218;28;20515;-70
2023/08/05 08:54:26;;;;;;;7.07;1.93;;;;;;;20.72;78.84;100981.75;5023822;28;20549;-70
2023/08/05 08:56:53;;;;;;;7.70;1.20;;;;;;;20.48;78.60;100972.59;5034894;28;20434;-70
2023/08/05 08:59:19;;;;;;;4.83;1.10;;;;;;;20.46;77.82;100961.13;5035271;28;20475;-70
2023/08/05 09:01:47;;;;;;;6.77;1.30;;;;;;;20.50;76.79;100958.50;5034503;28;20534;-70
2023/08/05 09:04:16;;;;;;;5.10;1.40;;;;;;;20.46;76.57;100952.09;5019205;28;20527;-70
2023/08/05 09:06:45;;;;;;;5.30;1.30;;;;;;;20.45;77.61;100951.25;5019359;28;20488;-70
2023/08/05 09:09:11;;;;;;;5.03;1.20;;;;;;;20.56;76.43;100948.78;5026249;28;20535;-70
2023/08/05 09:11:39;;;;;;;7.83;1.90;;;;;;;20.60;76.77;100955.19;5014907;28;20451;-70
2023/08/05 09:14:06;;;;;;;6.57;1.30;;;;;;;20.71;78.61;100963.66;5024344;28;20526;-70
2023/08/05 09:16:32;;;;;;;6.53;1.63;;;;;;;20.84;78.62;100956.84;5021190;28;20542;-70
2023/08/05 09:19:00;;;;;;;6.10;1.30;;;;;;;20.84;75.45;100956.84;5020314;28;20563;-70
2023/08/05 09:21:28;;;;;;;4.87;1.20;;;;;;;20.97;74.25;100960.25;5033372;28;20447;-70
2023/08/05 09:23:56;;;;;;;5.37;1.17;;;;;;;21.12;75.38;100960.19;5022775;28;20466;-70
2023/08/05 09:26:29;;;;;;;12.33;1.50;;;;;;;21.18;74.92;100960.69;5023089;28;20456;-70
2023/08/05 09:28:58;;;;;;;5.03;1.23;;;;;;;21.14;77.36;100957.06;5024502;28;20434;-71
2023/08/05 09:31:25;;;;;;;5.33;1.43;;;;;;;21.09;73.19;100968.38;5019663;28;20527;-70
2023/08/05 09:33:52;;;;;;;4.63;1.07;;;;;;;20.91;74.24;100962.53;5026791;28;20460;-70
2023/08/05 09:36:22;;;;;;;5.83;1.60;;;;;;;20.79;76.48;100957.94;5023132;28;20542;-70
2023/08/05 09:39:00;;;;;;;6.10;1.17;;;;;;;20.82;75.64;100951.72;5023396;28;21006;-72
2023/08/05 09:41:28;;;;;;;6.00;1.23;;;;;;;20.92;77.02;100953.88;5019631;28;20839;-72
2023/08/05 09:43:58;;;;;;;5.07;1.40;;;;;;;21.06;75.86;100947.06;5026744;28;20519;-69
2023/08/05 09:46:25;;;;;;;5.37;1.47;;;;;;;21.23;77.09;100943.06;5022544;28;20509;-69
2023/08/05 09:48:54;;;;;;;6.97;1.67;;;;;;;21.30;76.10;100943.22;5020031;28;20428;-69
2023/08/05 09:51:21;;;;;;;5.00;1.20;;;;;;;;;;5024109;28;20450;-69
2023/08/05 09:53:54;;;;;;;4.90;1.03;;;;;;;21.22;70.03;100936.78;5020865;28;21025;-69
2023/08/05 09:56:21;;;;;;;5.10;1.27;;;;;;;21.30;71.53;100926.69;5026044;28;20538;-69
2023/08/05 09:58:49;;;;;;;5.20;1.47;;;;;;;21.44;73.57;100923.41;5025894;28;20926;-69
2023/08/05 10:01:18;;;;;;;13.30;1.43;;;;;;;21.56;74.72;100925.97;5025975;28;20440;-70
2023/08/05 10:03:46;;;;;;;5.30;1.13;;;;;;;21.63;72.07;100921.38;5019449;28;20436;-70
2023/08/05 10:06:14;;;;;;;4.60;1.17;;;;;;;21.75;71.41;100917.66;5022189;28;20447;-70
2023/08/05 10:08:41;;;;;;;4.90;1.10;;;;;;;21.68;68.95;100923.03;5019382;28;20434;-70
2023/08/05 10:11:09;;;;;;;5.10;1.30;;;;;;;21.44;68.39;100929.72;5022258;28;20490;-70
2023/08/05 10:13:38;;;;;;;5.60;1.53;;;;;;;21.56;69.09;100918.53;5023376;28;20489;-70
2023/08/05 10:16:07;;;;;;;5.50;1.40;;;;;;;21.64;70.34;100916.66;5023667;28;20876;-70
2023/08/05 10:18:36;;;;;;;5.50;1.83;;;;;;;21.63;70.28;100917.84;5026079;28;20509;-70
2023/08/05 10:21:05;;;;;;;5.83;1.37;;;;;;;21.69;70.99;100918.31;5023000;28;20436;-70
2023/08/05 10:23:34;;;;;;;5.57;1.67;;;;;;;21.69;70.40;100919.13;5021204;28;20427;-70
2023/08/05 10:26:01;;;;;;;7.33;1.10;;;;;;;21.55;68.13;100918.88;5025493;28;21053;-70
2023/08/05 10:28:42;;;;;;;5.60;1.60;;;;;;;21.55;68.09;100921.63;5024415;28;20619;-70
2023/08/05 10:31:25;;;;;;;4.60;1.10;;;;;;;21.70;67.68;100931.75;5021882;28;20526;-70
2023/08/05 10:34:12;;;;;;;5.17;1.60;;;;;;;21.99;69.04;100926.69;5019321;28;20463;-70
2023/08/05 10:36:43;;;;;;;6.10;1.53;;;;;;;22.15;68.57;100936.44;5022811;28;20455;-70
2023/08/05 10:39:43;;;;;;;5.00;1.10;;;;;;;22.14;64.91;100931.31;5025438;28;20471;-70
2023/08/05 10:42:20;;;;;;;4.97;1.17;;;;;;;22.17;67.14;100911.22;5025104;28;20431;-70
2023/08/05 10:44:49;;;;;;;6.47;1.27;;;;;;;22.27;67.07;100918.88;5019559;28;20519;-70
2023/08/05 10:47:20;;;;;;;5.43;1.40;;;;;;;22.15;65.23;100916.34;5016679;28;20444;-70
2023/08/05 10:49:49;;;;;;;5.77;1.40;;;;;;;22.14;63.04;100907.28;5013250;28;20795;-70
2023/08/05 10:52:17;;;;;;;4.63;1.13;;;;;;;22.16;62.42;100904.13;5013477;28;20815;-70
2023/08/05 10:54:44;;;;;;;5.90;1.30;;;;;;;22.17;61.58;100905.72;5025662;28;20459;-70
2023/08/05 10:57:46;;;;;;;4.67;1.13;;;;;;;22.16;63.89;100904.13;5033181;28;20792;-70
2023/08/05 11:00:20;;;;;;;4.90;1.00;;;;;;;22.11;62.77;100904.41;5033441;28;20470;-70
2023/08/05 11:02:49;;;;;;;5.00;1.20;;;;;;;22.27;61.64;100899.56;5033208;28;20430;-70
2023/08/05 11:05:18;;;;;;;6.53;1.20;;;;;;;22.37;60.57;100893.38;5033464;28;20475;-70
2023/08/05 11:07:44;;;;;;;4.90;1.10;;;;;;;22.54;61.64;100886.53;5033168;28;20435;-70
2023/08/05 11:10:12;;;;;;;6.27;1.30;;;;;;;22.62;59.62;100877.16;5033412;28;20435;-70
2023/08/05 11:12:40;;;;;;;7.53;1.63;;;;;;;22.83;61.83;100875.81;5033206;28;20844;-70
2023/08/05 11:15:08;;;;;;;5.30;1.50;;;;;;;23.02;60.99;100872.91;5033026;28;20818;-67
2023/08/05 11:17:52;;;;;;;4.67;1.20;;;;;;;23.16;59.00;100869.50;5032982;28;20521;-70
2023/08/05 11:20:21;;;;;;;4.90;1.17;;;;;;;23.01;61.15;100862.22;5032963;28;20419;-70
2023/08/05 11:22:47;;;;;;;4.57;0.93;;;;;;;22.96;59.27;100862.56;5032843;28;20534;-70